sensor_id;sensor_type;location;lat;lon;timestamp;P1;durP1;ratioP1;P2;durP2;ratioP2
66593;SDS011;53450;42.584;23.366;2022-07-30T00:02:17;9.93;;;4.35;;
66593;SDS011;53450;42.584;23.366;2022-07-30T00:04:43;5.15;;;4.03;;
66593;SDS011;53450;42.584;23.366;2022-07-30T00:07:34;7.85;;;3.75;;
66593;SDS011;53450;42.584;23.366;2022-07-30T00:10:25;6.38;;;3.95;;
66593;SDS011;53450;42.584;23.366;2022-07-30T00:13:17;7.32;;;4.15;;
66593;SDS011;53450;42.584;23.366;2022-07-30T00:15:43;9.07;;;4.10;;
66593;SDS011;53450;42.584;23.366;2022-07-30T00:18:08;6.80;;;3.88;;
66593;SDS011;53450;42.584;23.366;2022-07-30T00:20:59;5.25;;;4.00;;
66593;SDS011;53450;42.584;23.366;2022-07-30T00:23:29;11.02;;;4.30;;
66593;SDS011;53450;42.584;23.366;2022-07-30T00:25:56;8.35;;;4.18;;
66593;SDS011;53450;42.584;23.366;2022-07-30T00:28:22;4.90;;;3.85;;
66593;SDS011;53450;42.584;23.366;2022-07-30T00:30:47;7.05;;;4.10;;
66593;SDS011;53450;42.584;23.366;2022-07-30T00:33:13;7.57;;;3.97;;
66593;SDS011;53450;42.584;23.366;2022-07-30T00:35:39;4.82;;;4.25;;
66593;SDS011;53450;42.584;23.366;2022-07-30T00:38:04;4.97;;;4.00;;
66593;SDS011;53450;42.584;23.366;2022-07-30T00:40:30;4.97;;;3.95;;
66593;SDS011;53450;42.584;23.366;2022-07-30T00:43:20;9.60;;;3.90;;
66593;SDS011;53450;42.584;23.366;2022-07-30T00:46:11;5.20;;;4.20;;
66593;SDS011;53450;42.584;23.366;2022-07-30T00:48:44;8.80;;;4.40;;
66593;SDS011;53450;42.584;23.366;2022-07-30T00:51:10;7.90;;;4.85;;
66593;SDS011;53450;42.584;23.366;2022-07-30T00:53:36;6.90;;;4.03;;
66593;SDS011;53450;42.584;23.366;2022-07-30T00:56:02;4.50;;;4.10;;
66593;SDS011;53450;42.584;23.366;2022-07-30T00:58:28;11.77;;;4.85;;
66593;SDS011;53450;42.584;23.366;2022-07-30T01:00:54;8.20;;;4.03;;
66593;SDS011;53450;42.584;23.366;2022-07-30T01:03:19;6.75;;;4.00;;
66593;SDS011;53450;42.584;23.366;2022-07-30T01:05:45;6.25;;;4.13;;
66593;SDS011;53450;42.584;23.366;2022-07-30T01:08:11;11.18;;;4.32;;
66593;SDS011;53450;42.584;23.366;2022-07-30T01:10:37;10.50;;;4.68;;
66593;SDS011;53450;42.584;23.366;2022-07-30T01:13:03;5.03;;;4.18;;
66593;SDS011;53450;42.584;23.366;2022-07-30T01:15:29;4.65;;;4.18;;
66593;SDS011;53450;42.584;23.366;2022-07-30T01:17:56;5.95;;;4.20;;
66593;SDS011;53450;42.584;23.366;2022-07-30T01:26:03;5.30;;;4.80;;
66593;SDS011;53450;42.584;23.366;2022-07-30T01:28:32;8.20;;;4.43;;
66593;SDS011;53450;42.584;23.366;2022-07-30T01:31:01;7.35;;;4.15;;
66593;SDS011;53450;42.584;23.366;2022-07-30T01:33:28;7.55;;;4.05;;
66593;SDS011;53450;42.584;23.366;2022-07-30T01:35:55;10.48;;;4.20;;
66593;SDS011;53450;42.584;23.366;2022-07-30T01:38:22;6.70;;;4.00;;
66593;SDS011;53450;42.584;23.366;2022-07-30T01:40:52;5.35;;;4.60;;
66593;SDS011;53450;42.584;23.366;2022-07-30T01:43:20;11.65;;;4.90;;
66593;SDS011;53450;42.584;23.366;2022-07-30T01:45:47;5.20;;;4.32;;
66593;SDS011;53450;42.584;23.366;2022-07-30T01:48:16;9.48;;;5.85;;
66593;SDS011;53450;42.584;23.366;2022-07-30T01:50:46;5.23;;;4.73;;
66593;SDS011;53450;42.584;23.366;2022-07-30T01:53:15;9.45;;;4.93;;
66593;SDS011;53450;42.584;23.366;2022-07-30T01:55:43;6.32;;;4.32;;
66593;SDS011;53450;42.584;23.366;2022-07-30T01:58:11;6.38;;;4.30;;
66593;SDS011;53450;42.584;23.366;2022-07-30T02:00:39;7.45;;;4.53;;
66593;SDS011;53450;42.584;23.366;2022-07-30T02:03:08;9.88;;;5.22;;
66593;SDS011;53450;42.584;23.366;2022-07-30T02:05:35;6.53;;;4.90;;
66593;SDS011;53450;42.584;23.366;2022-07-30T02:08:05;9.57;;;4.88;;
66593;SDS011;53450;42.584;23.366;2022-07-30T02:10:43;4.78;;;4.28;;
66593;SDS011;53450;42.584;23.366;2022-07-30T02:13:22;7.97;;;4.88;;
66593;SDS011;53450;42.584;23.366;2022-07-30T02:15:58;11.13;;;4.72;;
66593;SDS011;53450;42.584;23.366;2022-07-30T02:19:10;12.90;;;5.15;;
66593;SDS011;53450;42.584;23.366;2022-07-30T02:22:04;7.03;;;5.05;;
66593;SDS011;53450;42.584;23.366;2022-07-30T02:24:33;8.85;;;5.18;;
66593;SDS011;53450;42.584;23.366;2022-07-30T02:27:05;13.45;;;5.22;;
66593;SDS011;53450;42.584;23.366;2022-07-30T02:30:00;4.97;;;4.47;;
66593;SDS011;53450;42.584;23.366;2022-07-30T02:32:29;14.15;;;5.10;;
66593;SDS011;53450;42.584;23.366;2022-07-30T02:35:01;14.27;;;5.75;;
66593;SDS011;53450;42.584;23.366;2022-07-30T02:37:34;12.07;;;5.18;;
66593;SDS011;53450;42.584;23.366;2022-07-30T02:40:01;7.93;;;5.40;;
66593;SDS011;53450;42.584;23.366;2022-07-30T02:42:51;5.95;;;4.72;;
66593;SDS011;53450;42.584;23.366;2022-07-30T02:45:45;6.32;;;5.40;;
66593;SDS011;53450;42.584;23.366;2022-07-30T02:48:12;8.80;;;5.78;;
66593;SDS011;53450;42.584;23.366;2022-07-30T02:50:40;5.80;;;5.30;;
66593;SDS011;53450;42.584;23.366;2022-07-30T02:53:08;14.82;;;5.97;;
66593;SDS011;53450;42.584;23.366;2022-07-30T02:55:36;9.93;;;5.85;;
66593;SDS011;53450;42.584;23.366;2022-07-30T02:58:05;8.60;;;5.85;;
66593;SDS011;53450;42.584;23.366;2022-07-30T03:00:32;11.65;;;6.70;;
66593;SDS011;53450;42.584;23.366;2022-07-30T03:02:59;13.15;;;6.07;;
66593;SDS011;53450;42.584;23.366;2022-07-30T03:05:26;7.70;;;6.13;;
66593;SDS011;53450;42.584;23.366;2022-07-30T03:07:54;12.40;;;6.30;;
66593;SDS011;53450;42.584;23.366;2022-07-30T03:10:21;9.77;;;6.50;;
66593;SDS011;53450;42.584;23.366;2022-07-30T03:12:49;7.53;;;6.20;;
66593;SDS011;53450;42.584;23.366;2022-07-30T03:15:15;8.10;;;6.32;;
66593;SDS011;53450;42.584;23.366;2022-07-30T03:17:43;9.93;;;6.50;;
66593;SDS011;53450;42.584;23.366;2022-07-30T03:20:12;13.63;;;7.68;;
66593;SDS011;53450;42.584;23.366;2022-07-30T03:22:43;20.88;;;7.30;;
66593;SDS011;53450;42.584;23.366;2022-07-30T03:25:13;11.13;;;8.27;;
66593;SDS011;53450;42.584;23.366;2022-07-30T03:27:40;18.73;;;8.80;;
66593;SDS011;53450;42.584;23.366;2022-07-30T03:30:07;18.45;;;10.27;;
66593;SDS011;53450;42.584;23.366;2022-07-30T03:32:34;24.52;;;12.73;;
66593;SDS011;53450;42.584;23.366;2022-07-30T03:35:01;26.58;;;13.43;;
66593;SDS011;53450;42.584;23.366;2022-07-30T03:37:27;24.73;;;12.43;;
66593;SDS011;53450;42.584;23.366;2022-07-30T03:39:55;25.27;;;12.35;;
66593;SDS011;53450;42.584;23.366;2022-07-30T03:42:22;21.05;;;11.70;;
66593;SDS011;53450;42.584;23.366;2022-07-30T03:45:13;25.77;;;9.57;;
66593;SDS011;53450;42.584;23.366;2022-07-30T03:47:40;15.40;;;8.20;;
66593;SDS011;53450;42.584;23.366;2022-07-30T03:50:09;12.65;;;8.90;;
66593;SDS011;53450;42.584;23.366;2022-07-30T03:52:38;15.63;;;8.63;;
66593;SDS011;53450;42.584;23.366;2022-07-30T03:57:46;10.90;;;8.27;;
66593;SDS011;53450;42.584;23.366;2022-07-30T04:00:14;11.88;;;6.55;;
66593;SDS011;53450;42.584;23.366;2022-07-30T04:02:48;22.17;;;7.85;;
66593;SDS011;53450;42.584;23.366;2022-07-30T04:05:39;16.00;;;7.30;;
66593;SDS011;53450;42.584;23.366;2022-07-30T04:08:31;12.80;;;8.50;;
66593;SDS011;53450;42.584;23.366;2022-07-30T04:10:56;12.77;;;6.20;;
66593;SDS011;53450;42.584;23.366;2022-07-30T04:13:28;9.10;;;6.28;;
66593;SDS011;53450;42.584;23.366;2022-07-30T04:18:36;7.18;;;4.97;;
66593;SDS011;53450;42.584;23.366;2022-07-30T04:21:06;10.98;;;5.10;;
66593;SDS011;53450;42.584;23.366;2022-07-30T04:23:34;5.28;;;4.78;;
66593;SDS011;53450;42.584;23.366;2022-07-30T04:26:01;15.10;;;5.00;;
66593;SDS011;53450;42.584;23.366;2022-07-30T04:28:27;6.72;;;4.80;;
66593;SDS011;53450;42.584;23.366;2022-07-30T04:30:53;12.13;;;5.35;;
66593;SDS011;53450;42.584;23.366;2022-07-30T04:33:19;8.52;;;5.40;;
66593;SDS011;53450;42.584;23.366;2022-07-30T04:36:09;7.75;;;5.75;;
66593;SDS011;53450;42.584;23.366;2022-07-30T04:39:00;7.10;;;5.22;;
66593;SDS011;53450;42.584;23.366;2022-07-30T04:41:26;6.72;;;5.20;;
66593;SDS011;53450;42.584;23.366;2022-07-30T04:44:12;8.75;;;4.60;;
66593;SDS011;53450;42.584;23.366;2022-07-30T04:46:46;6.50;;;4.50;;
66593;SDS011;53450;42.584;23.366;2022-07-30T04:49:12;9.85;;;5.57;;
66593;SDS011;53450;42.584;23.366;2022-07-30T04:51:40;7.30;;;5.25;;
66593;SDS011;53450;42.584;23.366;2022-07-30T04:54:09;7.85;;;5.13;;
66593;SDS011;53450;42.584;23.366;2022-07-30T04:56:37;6.70;;;4.68;;
66593;SDS011;53450;42.584;23.366;2022-07-30T04:59:03;7.38;;;5.05;;
66593;SDS011;53450;42.584;23.366;2022-07-30T05:01:33;8.05;;;4.95;;
66593;SDS011;53450;42.584;23.366;2022-07-30T05:04:00;11.13;;;5.05;;
66593;SDS011;53450;42.584;23.366;2022-07-30T05:06:26;7.57;;;4.95;;
66593;SDS011;53450;42.584;23.366;2022-07-30T05:08:53;11.73;;;5.38;;
66593;SDS011;53450;42.584;23.366;2022-07-30T05:11:19;9.93;;;5.82;;
66593;SDS011;53450;42.584;23.366;2022-07-30T05:13:46;9.50;;;5.10;;
66593;SDS011;53450;42.584;23.366;2022-07-30T05:16:16;5.53;;;4.95;;
66593;SDS011;53450;42.584;23.366;2022-07-30T05:18:42;12.90;;;5.45;;
66593;SDS011;53450;42.584;23.366;2022-07-30T05:21:09;7.55;;;4.72;;
66593;SDS011;53450;42.584;23.366;2022-07-30T05:23:40;8.73;;;4.75;;
66593;SDS011;53450;42.584;23.366;2022-07-30T05:26:17;11.07;;;5.45;;
66593;SDS011;53450;42.584;23.366;2022-07-30T05:28:45;11.95;;;5.05;;
66593;SDS011;53450;42.584;23.366;2022-07-30T05:31:12;7.05;;;4.63;;
66593;SDS011;53450;42.584;23.366;2022-07-30T05:33:39;15.13;;;5.22;;
66593;SDS011;53450;42.584;23.366;2022-07-30T05:36:06;9.43;;;5.25;;
66593;SDS011;53450;42.584;23.366;2022-07-30T05:38:35;8.50;;;5.63;;
66593;SDS011;53450;42.584;23.366;2022-07-30T05:41:21;7.85;;;5.28;;
66593;SDS011;53450;42.584;23.366;2022-07-30T05:44:12;6.45;;;4.32;;
66593;SDS011;53450;42.584;23.366;2022-07-30T05:47:03;6.32;;;4.68;;
66593;SDS011;53450;42.584;23.366;2022-07-30T05:49:30;8.77;;;4.90;;
66593;SDS011;53450;42.584;23.366;2022-07-30T05:52:04;7.38;;;5.10;;
66593;SDS011;53450;42.584;23.366;2022-07-30T05:54:30;9.32;;;5.28;;
66593;SDS011;53450;42.584;23.366;2022-07-30T05:57:10;7.37;;;5.07;;
66593;SDS011;53450;42.584;23.366;2022-07-30T05:59:37;5.78;;;4.82;;
66593;SDS011;53450;42.584;23.366;2022-07-30T06:02:16;6.43;;;5.28;;
66593;SDS011;53450;42.584;23.366;2022-07-30T06:05:02;8.93;;;5.00;;
66593;SDS011;53450;42.584;23.366;2022-07-30T06:07:28;5.32;;;4.90;;
66593;SDS011;53450;42.584;23.366;2022-07-30T06:09:55;5.88;;;4.93;;
66593;SDS011;53450;42.584;23.366;2022-07-30T06:12:29;10.68;;;5.93;;
66593;SDS011;53450;42.584;23.366;2022-07-30T06:14:55;10.60;;;5.20;;
66593;SDS011;53450;42.584;23.366;2022-07-30T06:17:33;6.18;;;5.25;;
66593;SDS011;53450;42.584;23.366;2022-07-30T06:20:24;6.70;;;5.22;;
66593;SDS011;53450;42.584;23.366;2022-07-30T06:23:15;8.95;;;5.70;;
66593;SDS011;53450;42.584;23.366;2022-07-30T06:25:59;9.02;;;5.07;;
66593;SDS011;53450;42.584;23.366;2022-07-30T06:28:25;11.07;;;5.80;;
66593;SDS011;53450;42.584;23.366;2022-07-30T06:30:50;5.97;;;5.38;;
66593;SDS011;53450;42.584;23.366;2022-07-30T06:33:17;16.23;;;6.88;;
66593;SDS011;53450;42.584;23.366;2022-07-30T06:35:43;9.57;;;5.63;;
66593;SDS011;53450;42.584;23.366;2022-07-30T06:38:13;13.52;;;5.80;;
66593;SDS011;53450;42.584;23.366;2022-07-30T06:40:51;8.95;;;5.63;;
66593;SDS011;53450;42.584;23.366;2022-07-30T06:43:42;10.88;;;5.68;;
66593;SDS011;53450;42.584;23.366;2022-07-30T06:46:43;6.22;;;5.50;;
66593;SDS011;53450;42.584;23.366;2022-07-30T06:49:10;8.75;;;5.57;;
66593;SDS011;53450;42.584;23.366;2022-07-30T06:51:35;14.85;;;5.60;;
66593;SDS011;53450;42.584;23.366;2022-07-30T06:54:01;8.48;;;5.40;;
66593;SDS011;53450;42.584;23.366;2022-07-30T06:56:35;6.78;;;5.40;;
66593;SDS011;53450;42.584;23.366;2022-07-30T06:59:04;9.20;;;6.47;;
66593;SDS011;53450;42.584;23.366;2022-07-30T07:01:56;7.88;;;6.65;;
66593;SDS011;53450;42.584;23.366;2022-07-30T07:04:22;32.25;;;6.57;;
66593;SDS011;53450;42.584;23.366;2022-07-30T07:06:48;23.67;;;8.45;;
66593;SDS011;53450;42.584;23.366;2022-07-30T07:09:23;7.82;;;6.13;;
66593;SDS011;53450;42.584;23.366;2022-07-30T07:12:06;6.57;;;5.57;;
66593;SDS011;53450;42.584;23.366;2022-07-30T07:14:32;7.30;;;5.38;;
66593;SDS011;53450;42.584;23.366;2022-07-30T07:16:58;14.55;;;5.00;;
66593;SDS011;53450;42.584;23.366;2022-07-30T07:19:44;8.38;;;5.28;;
66593;SDS011;53450;42.584;23.366;2022-07-30T07:22:10;8.20;;;5.60;;
66593;SDS011;53450;42.584;23.366;2022-07-30T07:24:36;9.80;;;5.82;;
66593;SDS011;53450;42.584;23.366;2022-07-30T07:29:33;8.93;;;5.70;;
66593;SDS011;53450;42.584;23.366;2022-07-30T07:32:01;12.55;;;5.18;;
66593;SDS011;53450;42.584;23.366;2022-07-30T07:34:28;7.43;;;5.45;;
66593;SDS011;53450;42.584;23.366;2022-07-30T07:36:54;11.70;;;5.40;;
66593;SDS011;53450;42.584;23.366;2022-07-30T07:39:21;12.55;;;5.30;;
66593;SDS011;53450;42.584;23.366;2022-07-30T07:41:48;5.85;;;5.20;;
66593;SDS011;53450;42.584;23.366;2022-07-30T07:44:14;13.70;;;5.53;;
66593;SDS011;53450;42.584;23.366;2022-07-30T07:46:41;8.90;;;5.55;;
66593;SDS011;53450;42.584;23.366;2022-07-30T07:49:07;6.00;;;5.40;;
66593;SDS011;53450;42.584;23.366;2022-07-30T07:51:37;6.55;;;5.50;;
66593;SDS011;53450;42.584;23.366;2022-07-30T07:54:05;6.50;;;5.07;;
66593;SDS011;53450;42.584;23.366;2022-07-30T07:56:31;13.30;;;5.40;;
66593;SDS011;53450;42.584;23.366;2022-07-30T07:58:57;7.22;;;5.20;;
66593;SDS011;53450;42.584;23.366;2022-07-30T08:01:23;7.75;;;5.10;;
66593;SDS011;53450;42.584;23.366;2022-07-30T08:04:07;52.70;;;6.88;;
66593;SDS011;53450;42.584;23.366;2022-07-30T08:06:51;9.25;;;4.93;;
66593;SDS011;53450;42.584;23.366;2022-07-30T08:09:55;7.07;;;5.03;;
66593;SDS011;53450;42.584;23.366;2022-07-30T08:12:30;6.82;;;5.53;;
66593;SDS011;53450;42.584;23.366;2022-07-30T08:15:14;8.00;;;5.40;;
66593;SDS011;53450;42.584;23.366;2022-07-30T08:18:03;5.55;;;5.00;;
66593;SDS011;53450;42.584;23.366;2022-07-30T08:20:49;5.82;;;4.88;;
66593;SDS011;53450;42.584;23.366;2022-07-30T08:23:20;6.80;;;5.07;;
66593;SDS011;53450;42.584;23.366;2022-07-30T08:25:47;8.05;;;5.45;;
66593;SDS011;53450;42.584;23.366;2022-07-30T08:28:13;9.65;;;5.93;;
66593;SDS011;53450;42.584;23.366;2022-07-30T08:30:39;6.45;;;5.15;;
66593;SDS011;53450;42.584;23.366;2022-07-30T08:33:05;8.45;;;5.45;;
66593;SDS011;53450;42.584;23.366;2022-07-30T08:35:31;6.97;;;5.70;;
66593;SDS011;53450;42.584;23.366;2022-07-30T08:37:56;9.02;;;5.75;;
66593;SDS011;53450;42.584;23.366;2022-07-30T08:40:25;8.05;;;5.35;;
66593;SDS011;53450;42.584;23.366;2022-07-30T08:43:01;6.18;;;5.65;;
66593;SDS011;53450;42.584;23.366;2022-07-30T08:45:53;26.13;;;7.10;;
66593;SDS011;53450;42.584;23.366;2022-07-30T08:51:14;10.77;;;6.05;;
66593;SDS011;53450;42.584;23.366;2022-07-30T08:53:41;6.40;;;5.60;;
66593;SDS011;53450;42.584;23.366;2022-07-30T08:56:08;8.45;;;5.90;;
66593;SDS011;53450;42.584;23.366;2022-07-30T08:58:34;7.20;;;5.97;;
66593;SDS011;53450;42.584;23.366;2022-07-30T09:01:00;6.25;;;5.65;;
66593;SDS011;53450;42.584;23.366;2022-07-30T09:03:27;6.45;;;5.70;;
66593;SDS011;53450;42.584;23.366;2022-07-30T09:05:57;18.70;;;5.75;;
66593;SDS011;53450;42.584;23.366;2022-07-30T09:08:24;14.85;;;5.90;;
66593;SDS011;53450;42.584;23.366;2022-07-30T09:10:49;6.43;;;5.65;;
66593;SDS011;53450;42.584;23.366;2022-07-30T09:13:48;17.20;;;7.05;;
66593;SDS011;53450;42.584;23.366;2022-07-30T09:16:22;11.90;;;6.78;;
66593;SDS011;53450;42.584;23.366;2022-07-30T09:18:52;15.32;;;6.88;;
66593;SDS011;53450;42.584;23.366;2022-07-30T09:21:26;7.75;;;6.90;;
66593;SDS011;53450;42.584;23.366;2022-07-30T09:24:18;6.85;;;5.43;;
66593;SDS011;53450;42.584;23.366;2022-07-30T09:27:18;7.90;;;5.43;;
66593;SDS011;53450;42.584;23.366;2022-07-30T09:30:09;10.55;;;5.68;;
66593;SDS011;53450;42.584;23.366;2022-07-30T09:33:00;6.15;;;4.57;;
66593;SDS011;53450;42.584;23.366;2022-07-30T09:36:04;5.63;;;5.05;;
66593;SDS011;53450;42.584;23.366;2022-07-30T09:38:51;6.28;;;5.05;;
66593;SDS011;53450;42.584;23.366;2022-07-30T09:41:36;7.07;;;5.18;;
66593;SDS011;53450;42.584;23.366;2022-07-30T09:44:11;10.38;;;5.82;;
66593;SDS011;53450;42.584;23.366;2022-07-30T09:46:48;13.10;;;4.90;;
66593;SDS011;53450;42.584;23.366;2022-07-30T09:49:37;7.13;;;4.82;;
66593;SDS011;53450;42.584;23.366;2022-07-30T09:52:06;7.18;;;5.43;;
66593;SDS011;53450;42.584;23.366;2022-07-30T09:54:44;6.15;;;4.65;;
66593;SDS011;53450;42.584;23.366;2022-07-30T09:57:14;8.10;;;5.18;;
66593;SDS011;53450;42.584;23.366;2022-07-30T09:59:40;7.97;;;5.15;;
66593;SDS011;53450;42.584;23.366;2022-07-30T10:02:06;6.82;;;5.07;;
66593;SDS011;53450;42.584;23.366;2022-07-30T10:05:09;6.82;;;5.40;;
66593;SDS011;53450;42.584;23.366;2022-07-30T10:07:36;7.15;;;6.05;;
66593;SDS011;53450;42.584;23.366;2022-07-30T10:10:02;7.57;;;6.30;;
66593;SDS011;53450;42.584;23.366;2022-07-30T10:12:30;10.02;;;5.82;;
66593;SDS011;53450;42.584;23.366;2022-07-30T10:14:57;11.75;;;6.30;;
66593;SDS011;53450;42.584;23.366;2022-07-30T10:20:14;9.57;;;7.60;;
66593;SDS011;53450;42.584;23.366;2022-07-30T10:23:06;8.77;;;6.25;;
66593;SDS011;53450;42.584;23.366;2022-07-30T10:25:32;11.93;;;7.32;;
66593;SDS011;53450;42.584;23.366;2022-07-30T10:28:34;9.27;;;7.50;;
66593;SDS011;53450;42.584;23.366;2022-07-30T10:30:59;14.07;;;8.45;;
66593;SDS011;53450;42.584;23.366;2022-07-30T10:33:26;12.90;;;8.90;;
66593;SDS011;53450;42.584;23.366;2022-07-30T10:35:53;7.45;;;6.75;;
66593;SDS011;53450;42.584;23.366;2022-07-30T10:38:20;7.57;;;6.88;;
66593;SDS011;53450;42.584;23.366;2022-07-30T10:47:14;8.30;;;5.68;;
66593;SDS011;53450;42.584;23.366;2022-07-30T10:50:02;6.15;;;5.30;;
66593;SDS011;53450;42.584;23.366;2022-07-30T10:52:48;7.60;;;6.30;;
66593;SDS011;53450;42.584;23.366;2022-07-30T10:55:20;11.50;;;6.30;;
66593;SDS011;53450;42.584;23.366;2022-07-30T10:58:00;11.55;;;6.65;;
66593;SDS011;53450;42.584;23.366;2022-07-30T11:00:32;10.30;;;6.43;;
66593;SDS011;53450;42.584;23.366;2022-07-30T11:03:27;8.65;;;6.45;;
66593;SDS011;53450;42.584;23.366;2022-07-30T11:06:41;11.75;;;6.68;;
66593;SDS011;53450;42.584;23.366;2022-07-30T11:08:42;7.13;;;6.43;;
66593;SDS011;53450;42.584;23.366;2022-07-30T11:13:58;12.13;;;8.43;;
66593;SDS011;53450;42.584;23.366;2022-07-30T11:19:13;10.15;;;7.53;;
66593;SDS011;53450;42.584;23.366;2022-07-30T11:27:47;9.15;;;6.88;;
66593;SDS011;53450;42.584;23.366;2022-07-30T11:32:48;8.02;;;7.22;;
66593;SDS011;53450;42.584;23.366;2022-07-30T11:35:27;12.77;;;7.03;;
66593;SDS011;53450;42.584;23.366;2022-07-30T11:43:26;8.20;;;7.15;;
66593;SDS011;53450;42.584;23.366;2022-07-30T11:46:10;11.00;;;7.10;;
66593;SDS011;53450;42.584;23.366;2022-07-30T11:48:53;8.13;;;7.10;;
66593;SDS011;53450;42.584;23.366;2022-07-30T11:51:23;17.63;;;9.80;;
66593;SDS011;53450;42.584;23.366;2022-07-30T11:53:59;14.75;;;8.65;;
66593;SDS011;53450;42.584;23.366;2022-07-30T11:56:25;13.23;;;8.90;;
66593;SDS011;53450;42.584;23.366;2022-07-30T11:58:50;14.23;;;7.07;;
66593;SDS011;53450;42.584;23.366;2022-07-30T12:01:51;11.30;;;6.50;;
66593;SDS011;53450;42.584;23.366;2022-07-30T12:04:20;18.10;;;8.60;;
66593;SDS011;53450;42.584;23.366;2022-07-30T12:06:46;19.48;;;9.32;;
66593;SDS011;53450;42.584;23.366;2022-07-30T12:09:22;33.17;;;8.57;;
66593;SDS011;53450;42.584;23.366;2022-07-30T12:11:49;11.45;;;8.98;;
66593;SDS011;53450;42.584;23.366;2022-07-30T12:14:14;11.80;;;8.85;;
66593;SDS011;53450;42.584;23.366;2022-07-30T12:16:41;15.00;;;8.68;;
66593;SDS011;53450;42.584;23.366;2022-07-30T12:19:14;19.63;;;8.60;;
66593;SDS011;53450;42.584;23.366;2022-07-30T12:21:39;9.32;;;8.23;;
66593;SDS011;53450;42.584;23.366;2022-07-30T12:24:05;14.10;;;7.78;;
66593;SDS011;53450;42.584;23.366;2022-07-30T12:26:31;21.08;;;8.13;;
66593;SDS011;53450;42.584;23.366;2022-07-30T12:29:04;21.20;;;9.32;;
66593;SDS011;53450;42.584;23.366;2022-07-30T12:31:34;11.20;;;8.85;;
66593;SDS011;53450;42.584;23.366;2022-07-30T12:34:00;16.77;;;9.27;;
66593;SDS011;53450;42.584;23.366;2022-07-30T12:36:27;11.07;;;8.50;;
66593;SDS011;53450;42.584;23.366;2022-07-30T12:38:57;14.85;;;8.75;;
66593;SDS011;53450;42.584;23.366;2022-07-30T12:41:46;8.80;;;7.90;;
66593;SDS011;53450;42.584;23.366;2022-07-30T12:47:01;13.55;;;8.13;;
66593;SDS011;53450;42.584;23.366;2022-07-30T12:49:29;11.55;;;8.32;;
66593;SDS011;53450;42.584;23.366;2022-07-30T12:51:56;11.13;;;8.60;;
66593;SDS011;53450;42.584;23.366;2022-07-30T12:54:21;8.70;;;7.80;;
66593;SDS011;53450;42.584;23.366;2022-07-30T12:57:00;10.57;;;9.07;;
66593;SDS011;53450;42.584;23.366;2022-07-30T12:59:29;13.60;;;9.10;;
66593;SDS011;53450;42.584;23.366;2022-07-30T13:01:56;14.32;;;8.88;;
66593;SDS011;53450;42.584;23.366;2022-07-30T13:04:24;20.08;;;7.30;;
66593;SDS011;53450;42.584;23.366;2022-07-30T13:07:06;16.17;;;8.18;;
66593;SDS011;53450;42.584;23.366;2022-07-30T13:09:34;10.50;;;8.85;;
66593;SDS011;53450;42.584;23.366;2022-07-30T13:12:02;8.70;;;7.15;;
66593;SDS011;53450;42.584;23.366;2022-07-30T13:14:28;12.65;;;7.90;;
66593;SDS011;53450;42.584;23.366;2022-07-30T13:16:54;15.65;;;7.63;;
66593;SDS011;53450;42.584;23.366;2022-07-30T13:19:21;7.38;;;6.63;;
66593;SDS011;53450;42.584;23.366;2022-07-30T13:21:46;20.15;;;7.20;;
66593;SDS011;53450;42.584;23.366;2022-07-30T13:24:12;17.17;;;7.40;;
66593;SDS011;53450;42.584;23.366;2022-07-30T13:26:38;13.88;;;6.50;;
66593;SDS011;53450;42.584;23.366;2022-07-30T13:29:04;8.60;;;6.82;;
66593;SDS011;53450;42.584;23.366;2022-07-30T13:31:30;32.90;;;7.85;;
66593;SDS011;53450;42.584;23.366;2022-07-30T13:33:56;8.77;;;7.22;;
66593;SDS011;53450;42.584;23.366;2022-07-30T13:36:21;9.48;;;6.97;;
66593;SDS011;53450;42.584;23.366;2022-07-30T13:38:47;7.45;;;6.60;;
66593;SDS011;53450;42.584;23.366;2022-07-30T13:41:13;9.02;;;7.28;;
66593;SDS011;53450;42.584;23.366;2022-07-30T13:43:40;12.30;;;7.30;;
66593;SDS011;53450;42.584;23.366;2022-07-30T13:46:06;11.13;;;7.28;;
66593;SDS011;53450;42.584;23.366;2022-07-30T13:48:32;15.20;;;6.65;;
66593;SDS011;53450;42.584;23.366;2022-07-30T13:51:01;11.48;;;7.03;;
66593;SDS011;53450;42.584;23.366;2022-07-30T13:53:28;23.42;;;7.13;;
66593;SDS011;53450;42.584;23.366;2022-07-30T13:55:54;15.80;;;6.85;;
66593;SDS011;53450;42.584;23.366;2022-07-30T13:58:20;7.40;;;6.53;;
66593;SDS011;53450;42.584;23.366;2022-07-30T14:00:46;9.98;;;7.38;;
66593;SDS011;53450;42.584;23.366;2022-07-30T14:03:13;48.90;;;7.93;;
66593;SDS011;53450;42.584;23.366;2022-07-30T14:05:39;7.53;;;6.47;;
66593;SDS011;53450;42.584;23.366;2022-07-30T14:08:05;10.50;;;7.07;;
66593;SDS011;53450;42.584;23.366;2022-07-30T14:10:32;11.07;;;7.45;;
66593;SDS011;53450;42.584;23.366;2022-07-30T14:12:59;15.23;;;7.15;;
66593;SDS011;53450;42.584;23.366;2022-07-30T14:15:26;7.32;;;6.60;;
66593;SDS011;53450;42.584;23.366;2022-07-30T14:17:53;13.32;;;7.00;;
66593;SDS011;53450;42.584;23.366;2022-07-30T14:20:19;7.20;;;6.45;;
66593;SDS011;53450;42.584;23.366;2022-07-30T14:22:44;13.23;;;7.88;;
66593;SDS011;53450;42.584;23.366;2022-07-30T14:25:10;21.17;;;9.80;;
66593;SDS011;53450;42.584;23.366;2022-07-30T14:27:36;9.77;;;6.13;;
66593;SDS011;53450;42.584;23.366;2022-07-30T14:30:03;8.85;;;6.30;;
66593;SDS011;53450;42.584;23.366;2022-07-30T14:32:30;9.05;;;6.18;;
66593;SDS011;53450;42.584;23.366;2022-07-30T14:34:56;7.47;;;6.35;;
66593;SDS011;53450;42.584;23.366;2022-07-30T14:37:22;19.50;;;6.38;;
66593;SDS011;53450;42.584;23.366;2022-07-30T14:39:48;25.55;;;7.00;;
66593;SDS011;53450;42.584;23.366;2022-07-30T14:42:14;8.00;;;6.35;;
66593;SDS011;53450;42.584;23.366;2022-07-30T14:44:39;9.35;;;6.00;;
66593;SDS011;53450;42.584;23.366;2022-07-30T14:47:09;10.27;;;5.88;;
66593;SDS011;53450;42.584;23.366;2022-07-30T14:49:35;6.75;;;6.05;;
66593;SDS011;53450;42.584;23.366;2022-07-30T14:52:00;6.70;;;5.70;;
66593;SDS011;53450;42.584;23.366;2022-07-30T14:54:26;11.18;;;5.97;;
66593;SDS011;53450;42.584;23.366;2022-07-30T14:56:52;73.20;;;7.95;;
66593;SDS011;53450;42.584;23.366;2022-07-30T14:59:17;9.00;;;6.13;;
66593;SDS011;53450;42.584;23.366;2022-07-30T15:01:43;8.65;;;6.72;;
66593;SDS011;53450;42.584;23.366;2022-07-30T15:04:11;12.27;;;6.55;;
66593;SDS011;53450;42.584;23.366;2022-07-30T15:06:36;6.60;;;5.97;;
66593;SDS011;53450;42.584;23.366;2022-07-30T15:09:04;10.48;;;6.22;;
66593;SDS011;53450;42.584;23.366;2022-07-30T15:11:31;7.57;;;5.88;;
66593;SDS011;53450;42.584;23.366;2022-07-30T15:13:56;10.73;;;6.00;;
66593;SDS011;53450;42.584;23.366;2022-07-30T15:16:22;9.93;;;6.28;;
66593;SDS011;53450;42.584;23.366;2022-07-30T15:18:48;20.63;;;7.50;;
66593;SDS011;53450;42.584;23.366;2022-07-30T15:21:14;9.25;;;6.68;;
66593;SDS011;53450;42.584;23.366;2022-07-30T15:23:40;18.45;;;7.90;;
66593;SDS011;53450;42.584;23.366;2022-07-30T15:26:07;11.32;;;6.50;;
66593;SDS011;53450;42.584;23.366;2022-07-30T15:28:33;8.45;;;7.30;;
66593;SDS011;53450;42.584;23.366;2022-07-30T15:30:58;22.75;;;10.05;;
66593;SDS011;53450;42.584;23.366;2022-07-30T15:33:24;23.85;;;9.07;;
66593;SDS011;53450;42.584;23.366;2022-07-30T15:35:50;17.13;;;11.07;;
66593;SDS011;53450;42.584;23.366;2022-07-30T15:38:16;12.65;;;7.78;;
66593;SDS011;53450;42.584;23.366;2022-07-30T15:40:41;17.10;;;8.52;;
66593;SDS011;53450;42.584;23.366;2022-07-30T15:43:08;14.25;;;8.52;;